Time;durP1;ratioP1;P1;durP2;ratioP2;P2;SDS_P1;SDS_P2;PMS_P1;PMS_P2;Temp;Humidity;BMP_temperature;BMP_pressure;BME280_temperature;BME280_humidity;BME280_pressure;Samples;Min_cycle;Max_cycle;Signal;HPM_P1;HPM_P2
2021/09/24 00:01:01;;;;;;;15.80;9.07;;;18.20;99.90;;;;;;5073105;28;20133;-78
2021/09/24 00:03:27;;;;;;;15.77;9.38;;;18.20;99.90;;;;;;5071106;28;20036;-78
2021/09/24 00:05:52;;;;;;;16.52;9.25;;;18.20;99.90;;;;;;5076606;28;20384;-79
2021/09/24 00:08:19;;;;;;;15.38;9.60;;;18.30;99.90;;;;;;5074393;28;20032;-78
2021/09/24 00:10:45;;;;;;;21.58;9.07;;;18.40;99.90;;;;;;5074223;28;20024;-79
2021/09/24 00:13:11;;;;;;;15.38;10.82;;;18.40;99.90;;;;;;5072325;28;20538;-79
2021/09/24 00:15:37;;;;;;;19.13;11.07;;;18.30;99.90;;;;;;5068708;28;20099;-79
2021/09/24 00:18:03;;;;;;;21.00;10.13;;;18.40;99.90;;;;;;5072168;28;20025;-79
2021/09/24 00:20:29;;;;;;;19.92;11.32;;;18.40;99.90;;;;;;5078033;28;20021;-79
2021/09/24 00:22:55;;;;;;;22.50;11.82;;;18.40;99.90;;;;;;5076336;28;20020;-79
2021/09/24 00:25:21;;;;;;;17.48;11.82;;;18.40;99.90;;;;;;5073365;28;20107;-79
2021/09/24 00:27:46;;;;;;;22.30;13.13;;;18.40;99.90;;;;;;5075511;28;20032;-77
2021/09/24 00:30:13;;;;;;;21.45;12.40;;;18.40;99.90;;;;;;5066828;28;20028;-78
2021/09/24 00:32:38;;;;;;;23.90;14.23;;;18.40;99.90;;;;;;5073887;28;20082;-80
2021/09/24 00:35:05;;;;;;;25.52;12.82;;;18.40;99.90;;;;;;5072578;28;20042;-78
2021/09/24 00:37:30;;;;;;;23.65;13.43;;;18.40;99.90;;;;;;5072942;28;20422;-79
2021/09/24 00:39:57;;;;;;;24.77;15.02;;;18.40;99.90;;;;;;5075160;28;20062;-78
2021/09/24 00:42:22;;;;;;;25.60;14.10;;;18.30;99.90;;;;;;5075923;28;20027;-79
2021/09/24 00:44:51;;;;;;;23.27;15.27;;;18.30;99.90;;;;;;5079425;28;20384;-78
2021/09/24 00:47:18;;;;;;;25.05;15.40;;;18.30;99.90;;;;;;5075946;28;20028;-78
2021/09/24 00:49:44;;;;;;;23.27;14.30;;;18.40;99.90;;;;;;5075375;28;20025;-78
2021/09/24 00:52:10;;;;;;;22.65;13.80;;;18.40;99.90;;;;;;5082765;28;20542;-78
2021/09/24 00:54:37;;;;;;;23.02;12.90;;;18.40;99.90;;;;;;5073180;28;20017;-79
2021/09/24 00:57:03;;;;;;;23.08;13.32;;;18.40;99.90;;;;;;5073145;28;20060;-78
2021/09/24 00:59:29;;;;;;;23.70;15.10;;;18.40;99.90;;;;;;5076990;28;20431;-78
2021/09/24 01:01:56;;;;;;;23.90;15.13;;;18.40;99.90;;;;;;5073799;28;20069;-78
2021/09/24 01:04:22;;;;;;;29.55;16.08;;;18.40;99.90;;;;;;5081004;28;20637;-78
2021/09/24 01:06:49;;;;;;;26.02;15.50;;;18.40;99.90;;;;;;5080166;28;20020;-79
2021/09/24 01:09:15;;;;;;;20.65;14.65;;;18.40;99.90;;;;;;5079009;28;20073;-79
2021/09/24 01:11:41;;;;;;;27.83;15.52;;;18.40;99.90;;;;;;5072837;28;20034;-79
2021/09/24 01:14:07;;;;;;;29.08;17.38;;;18.50;99.90;;;;;;5077963;28;20048;-78
2021/09/24 01:16:33;;;;;;;27.38;17.60;;;18.40;99.90;;;;;;5069873;28;20017;-78
2021/09/24 01:18:59;;;;;;;33.40;20.85;;;18.40;99.90;;;;;;5075424;28;20040;-79
2021/09/24 01:21:25;;;;;;;36.58;20.23;;;18.40;99.90;;;;;;5078798;28;20103;-77
2021/09/24 01:23:51;;;;;;;37.28;20.88;;;18.40;99.90;;;;;;5079051;28;20025;-78
2021/09/24 01:26:17;;;;;;;36.78;22.08;;;18.40;99.90;;;;;;5071841;28;20028;-78
2021/09/24 01:28:44;;;;;;;38.83;24.55;;;18.40;99.90;;;;;;5075759;28;20370;-79
2021/09/24 01:31:14;;;;;;;39.15;24.10;;;18.40;99.90;;;;;;5072656;28;20042;-79
2021/09/24 01:33:48;;;;;;;44.92;26.38;;;18.40;99.90;;;;;;5076345;28;20445;-78
2021/09/24 01:36:14;;;;;;;41.40;25.85;;;18.40;99.90;;;;;;5073448;28;20498;-79
2021/09/24 01:38:40;;;;;;;39.90;24.65;;;18.50;99.90;;;;;;5078140;28;20036;-79
2021/09/24 01:41:06;;;;;;;40.38;25.80;;;18.40;99.90;;;;;;5056995;28;20957;-79
2021/09/24 01:43:33;;;;;;;45.65;26.75;;;18.40;99.90;;;;;;5075136;28;20031;-79
2021/09/24 01:46:00;;;;;;;45.78;26.10;;;18.50;99.90;;;;;;5071092;28;20021;-78
2021/09/24 01:48:26;;;;;;;44.05;26.05;;;18.50;99.90;;;;;;5079369;28;20497;-79
2021/09/24 01:50:52;;;;;;;53.25;29.13;;;18.40;99.90;;;;;;5073616;28;20051;-78
2021/09/24 01:53:18;;;;;;;45.13;26.88;;;18.50;99.90;;;;;;5075839;28;20365;-79
2021/09/24 01:55:44;;;;;;;49.75;29.60;;;18.50;99.90;;;;;;5074325;28;20491;-79
2021/09/24 01:58:09;;;;;;;54.65;30.40;;;18.40;99.90;;;;;;5076529;28;20028;-79
2021/09/24 02:00:35;;;;;;;55.00;31.30;;;18.40;99.90;;;;;;5074187;28;20442;-79
2021/09/24 02:03:01;;;;;;;53.88;30.48;;;18.40;99.90;;;;;;5082526;28;20046;-80
2021/09/24 02:05:26;;;;;;;54.28;31.00;;;18.30;99.90;;;;;;5073640;28;20520;-78
2021/09/24 02:07:52;;;;;;;65.20;34.67;;;18.30;99.90;;;;;;5079433;28;20024;-77
2021/09/24 02:10:18;;;;;;;56.13;32.50;;;18.30;99.90;;;;;;5067219;28;20029;-79
2021/09/24 02:12:43;;;;;;;65.05;35.10;;;18.30;99.90;;;;;;5072566;28;20465;-79
2021/09/24 02:15:10;;;;;;;64.25;33.03;;;18.30;99.90;;;;;;5077593;28;20059;-79
2021/09/24 02:17:36;;;;;;;57.85;32.08;;;18.30;99.90;;;;;;5073114;28;20032;-79
2021/09/24 02:20:03;;;;;;;55.33;31.58;;;18.20;99.90;;;;;;5077401;28;20025;-79
2021/09/24 02:22:28;;;;;;;66.85;34.47;;;18.20;99.90;;;;;;5079447;28;20024;-79
2021/09/24 02:24:54;;;;;;;64.03;34.13;;;18.20;99.90;;;;;;5077695;28;20164;-78
2021/09/24 02:27:20;;;;;;;69.75;36.05;;;18.30;99.90;;;;;;5076201;28;20028;-78
2021/09/24 02:29:45;;;;;;;70.25;35.17;;;18.30;99.90;;;;;;5074657;28;20102;-79
2021/09/24 02:32:11;;;;;;;79.30;37.30;;;18.30;99.90;;;;;;5077800;28;20059;-80
2021/09/24 02:34:37;;;;;;;67.93;35.80;;;18.30;99.90;;;;;;5076900;28;20091;-78
2021/09/24 02:37:03;;;;;;;70.45;40.72;;;18.30;99.90;;;;;;5071642;28;20028;-78
2021/09/24 02:39:28;;;;;;;70.60;39.45;;;18.20;99.90;;;;;;5074598;28;20056;-79
2021/09/24 02:41:54;;;;;;;69.32;39.17;;;18.20;99.90;;;;;;5073258;28;20382;-80
2021/09/24 02:44:20;;;;;;;73.63;41.65;;;18.20;99.90;;;;;;5077595;28;20024;-79
2021/09/24 02:46:46;;;;;;;82.25;42.47;;;18.20;99.90;;;;;;5073413;28;20025;-78
2021/09/24 02:49:11;;;;;;;75.80;40.90;;;18.20;99.90;;;;;;5074862;28;20029;-79
2021/09/24 02:51:37;;;;;;;82.53;44.60;;;18.30;99.90;;;;;;5076426;28;20025;-79
2021/09/24 02:54:03;;;;;;;85.00;42.55;;;18.30;99.90;;;;;;5071609;28;20025;-79
2021/09/24 02:56:29;;;;;;;71.43;37.47;;;18.30;99.90;;;;;;5079657;28;20024;-79
2021/09/24 02:58:54;;;;;;;78.30;39.60;;;18.20;99.90;;;;;;5077534;28;20051;-79
2021/09/24 03:01:20;;;;;;;70.30;39.40;;;18.20;99.90;;;;;;5078923;28;20380;-79
2021/09/24 03:03:46;;;;;;;70.88;38.08;;;18.20;99.90;;;;;;5073008;28;20502;-78
2021/09/24 03:06:12;;;;;;;71.00;36.88;;;18.20;99.90;;;;;;5067466;28;20026;-79
2021/09/24 03:08:37;;;;;;;70.97;37.38;;;18.20;99.90;;;;;;5077483;28;20036;-79
2021/09/24 03:11:03;;;;;;;64.70;34.13;;;18.20;99.90;;;;;;5074125;28;20025;-79
2021/09/24 03:13:29;;;;;;;67.05;34.50;;;18.20;99.90;;;;;;5073472;28;20021;-79
2021/09/24 03:15:55;;;;;;;69.60;35.28;;;18.20;99.90;;;;;;5072557;28;20016;-78
2021/09/24 03:18:21;;;;;;;66.82;35.50;;;18.20;99.90;;;;;;5074515;28;20066;-79
2021/09/24 03:20:47;;;;;;;73.85;36.58;;;18.30;99.90;;;;;;5079733;28;20017;-77
2021/09/24 03:23:13;;;;;;;61.85;35.25;;;18.20;99.90;;;;;;5082986;28;20024;-79
2021/09/24 03:25:39;;;;;;;67.53;34.67;;;18.10;99.90;;;;;;5083007;28;20032;-79
2021/09/24 03:28:05;;;;;;;68.32;35.25;;;18.10;99.90;;;;;;5070120;28;20091;-79
2021/09/24 03:30:31;;;;;;;70.60;36.38;;;18.10;99.90;;;;;;5075893;28;20039;-78
2021/09/24 03:32:57;;;;;;;68.22;37.60;;;18.10;99.90;;;;;;5071898;28;20015;-78
2021/09/24 03:35:23;;;;;;;73.72;40.25;;;17.90;99.90;;;;;;5074937;28;20024;-79
2021/09/24 03:37:48;;;;;;;71.72;36.70;;;18.00;99.90;;;;;;5074632;28;20036;-78
2021/09/24 03:40:15;;;;;;;69.18;34.90;;;18.00;99.90;;;;;;5079629;28;20028;-79
2021/09/24 03:42:41;;;;;;;74.18;36.22;;;18.00;99.90;;;;;;5075979;28;20027;-79
2021/09/24 03:45:08;;;;;;;66.13;34.92;;;18.00;99.90;;;;;;5070993;28;20037;-79
2021/09/24 03:47:35;;;;;;;64.35;34.20;;;18.00;99.90;;;;;;5077039;28;20028;-79
2021/09/24 03:50:00;;;;;;;57.72;29.73;;;18.10;99.90;;;;;;5076956;28;20024;-79
2021/09/24 03:52:26;;;;;;;57.47;30.00;;;18.10;99.90;;;;;;5076759;28;20030;-79
2021/09/24 03:54:52;;;;;;;54.15;30.75;;;18.10;99.90;;;;;;5072443;28;20028;-79
2021/09/24 03:57:17;;;;;;;53.58;29.67;;;18.00;99.90;;;;;;5076930;28;20029;-79
2021/09/24 03:59:43;;;;;;;45.55;27.80;;;18.00;99.90;;;;;;5072092;28;20788;-78
2021/09/24 04:02:08;;;;;;;50.25;27.45;;;17.90;99.90;;;;;;5068050;28;20428;-79
2021/09/24 04:04:34;;;;;;;42.55;25.67;;;17.90;99.90;;;;;;5075305;28;20056;-79
2021/09/24 04:07:00;;;;;;;44.58;26.02;;;18.00;99.90;;;;;;5074773;28;20024;-79
2021/09/24 04:09:25;;;;;;;44.25;26.92;;;17.90;99.90;;;;;;5072892;28;20096;-78
2021/09/24 04:11:51;;;;;;;51.33;27.00;;;18.00;99.90;;;;;;5071223;28;20081;-78
2021/09/24 04:14:17;;;;;;;43.80;26.60;;;18.00;99.90;;;;;;5070871;28;20448;-79
2021/09/24 04:16:42;;;;;;;57.13;30.55;;;17.90;99.90;;;;;;5071194;28;20034;-80
2021/09/24 04:19:08;;;;;;;51.67;27.35;;;17.90;99.90;;;;;;5072860;28;20400;-79
2021/09/24 04:21:34;;;;;;;54.75;28.58;;;17.90;99.90;;;;;;5074206;28;20024;-78
2021/09/24 04:23:59;;;;;;;55.15;29.27;;;18.00;99.90;;;;;;5076492;28;20024;-79
2021/09/24 04:26:25;;;;;;;53.15;27.45;;;18.00;99.90;;;;;;5077201;28;20127;-79
2021/09/24 04:28:52;;;;;;;51.88;28.50;;;18.00;99.90;;;;;;5076486;28;20090;-78
2021/09/24 04:31:17;;;;;;;58.92;29.90;;;18.10;99.90;;;;;;5072910;28;20473;-78
2021/09/24 04:33:43;;;;;;;58.33;29.17;;;18.10;99.90;;;;;;5075511;28;20029;-79
2021/09/24 04:36:09;;;;;;;49.38;26.45;;;18.00;99.90;;;;;;5074630;28;20039;-78
2021/09/24 04:38:35;;;;;;;44.63;27.50;;;17.90;99.90;;;;;;5077072;28;20039;-79
2021/09/24 04:41:00;;;;;;;56.08;28.65;;;17.90;99.90;;;;;;5074580;28;20021;-79
2021/09/24 04:43:26;;;;;;;53.42;28.70;;;17.90;99.90;;;;;;5077537;28;20503;-79
2021/09/24 04:45:52;;;;;;;54.08;28.52;;;17.90;99.90;;;;;;5073001;28;20107;-79
2021/09/24 04:48:17;;;;;;;56.35;28.20;;;17.80;99.90;;;;;;5082347;28;20027;-78
2021/09/24 04:50:43;;;;;;;46.00;27.17;;;17.70;99.90;;;;;;5071374;28;20036;-79
2021/09/24 04:53:09;;;;;;;50.92;27.52;;;17.80;99.90;;;;;;5078272;28;20028;-78
2021/09/24 04:55:34;;;;;;;48.80;28.00;;;17.70;99.90;;;;;;5077689;28;20042;-79
2021/09/24 04:58:00;;;;;;;43.88;26.30;;;17.80;99.90;;;;;;5071989;28;20483;-80
2021/09/24 05:00:26;;;;;;;47.53;28.40;;;17.80;99.90;;;;;;5073822;28;20021;-79
2021/09/24 05:02:52;;;;;;;39.53;24.88;;;17.90;99.90;;;;;;5075321;28;20033;-79
2021/09/24 05:05:18;;;;;;;51.22;28.08;;;17.90;99.90;;;;;;5072792;28;20056;-78
2021/09/24 05:07:43;;;;;;;48.58;27.75;;;17.80;99.90;;;;;;5078777;28;20078;-79
2021/09/24 05:10:09;;;;;;;52.13;27.52;;;17.80;99.90;;;;;;5077809;28;20358;-78
2021/09/24 05:12:35;;;;;;;53.75;26.90;;;17.80;99.90;;;;;;5082272;28;20442;-80
2021/09/24 05:15:01;;;;;;;49.55;26.15;;;17.80;99.90;;;;;;5087660;28;20016;-78
2021/09/24 05:17:26;;;;;;;49.83;26.50;;;17.80;99.90;;;;;;5075339;28;20468;-78
2021/09/24 05:19:52;;;;;;;47.22;26.17;;;17.80;99.90;;;;;;5075001;28;20449;-78
2021/09/24 05:22:18;;;;;;;49.83;25.67;;;17.70;99.90;;;;;;5073735;28;20016;-78
2021/09/24 05:24:44;;;;;;;57.95;29.63;;;17.80;99.90;;;;;;5078048;28;20059;-77
2021/09/24 05:27:10;;;;;;;46.17;26.65;;;17.80;99.90;;;;;;5076979;28;20055;-78
2021/09/24 05:29:35;;;;;;;47.85;26.00;;;17.70;99.90;;;;;;5073921;28;20025;-78
2021/09/24 05:32:02;;;;;;;49.28;26.95;;;17.70;99.90;;;;;;5071884;28;20105;-79
2021/09/24 05:34:28;;;;;;;51.30;28.48;;;17.70;99.90;;;;;;5075098;28;21132;-77
2021/09/24 05:36:53;;;;;;;59.97;30.73;;;17.60;99.90;;;;;;5077091;28;20020;-78
2021/09/24 05:39:20;;;;;;;59.40;30.60;;;17.60;99.90;;;;;;5075710;28;20058;-79
2021/09/24 05:41:46;;;;;;;73.75;34.25;;;17.60;99.90;;;;;;5074456;28;20077;-78
2021/09/24 05:44:11;;;;;;;70.65;34.65;;;17.60;99.90;;;;;;5077323;28;20028;-78
2021/09/24 05:46:37;;;;;;;60.40;32.90;;;17.70;99.90;;;;;;5072525;28;20024;-79
2021/09/24 05:49:03;;;;;;;60.22;31.88;;;17.70;99.90;;;;;;5078481;28;20020;-79
2021/09/24 05:51:28;;;;;;;57.20;29.33;;;17.60;99.90;;;;;;5070818;28;20017;-79
2021/09/24 05:53:54;;;;;;;56.42;29.13;;;17.70;99.90;;;;;;5072183;28;20373;-78
2021/09/24 05:56:20;;;;;;;62.25;31.25;;;17.70;99.90;;;;;;5079715;28;20536;-78
2021/09/24 05:58:45;;;;;;;61.08;31.10;;;17.80;99.90;;;;;;5072242;28;20032;-78
2021/09/24 06:01:11;;;;;;;57.28;29.88;;;17.80;99.90;;;;;;5075279;28;20028;-79
2021/09/24 06:03:37;;;;;;;57.75;32.58;;;17.70;99.90;;;;;;5072889;28;20089;-79
2021/09/24 06:06:02;;;;;;;58.80;31.13;;;17.70;99.90;;;;;;5069683;28;20024;-80
2021/09/24 06:08:28;;;;;;;52.30;29.52;;;17.70;99.90;;;;;;5069949;28;22127;-78
2021/09/24 06:10:56;;;;;;;65.22;34.10;;;17.70;99.90;;;;;;5055199;28;20468;-78
2021/09/24 06:13:21;;;;;;;69.88;35.10;;;17.70;99.90;;;;;;5069916;28;20032;-79
2021/09/24 06:15:48;;;;;;;66.93;32.95;;;17.80;99.90;;;;;;5069730;28;20057;-78
2021/09/24 06:18:14;;;;;;;68.32;36.25;;;17.80;99.90;;;;;;5074302;28;20594;-78
2021/09/24 06:20:40;;;;;;;64.32;34.80;;;17.90;99.90;;;;;;5077307;28;20034;-78
2021/09/24 06:23:06;;;;;;;62.10;33.65;;;17.90;99.90;;;;;;5073541;28;20023;-78
2021/09/24 06:25:32;;;;;;;71.82;35.20;;;18.00;99.90;;;;;;5069576;28;20040;-76
2021/09/24 06:27:59;;;;;;;63.67;34.75;;;17.90;99.90;;;;;;5075602;28;20028;-79
2021/09/24 06:30:24;;;;;;;62.22;33.15;;;17.90;99.90;;;;;;5070037;28;20020;-79
2021/09/24 06:32:52;;;;;;;65.55;33.60;;;17.80;99.90;;;;;;5071544;28;20116;-78
2021/09/24 06:35:18;;;;;;;70.63;35.65;;;17.80;99.90;;;;;;5079006;28;20035;-78
2021/09/24 06:37:44;;;;;;;64.88;34.72;;;17.90;99.90;;;;;;5075798;28;20032;-79
2021/09/24 06:40:20;;;;;;;61.80;32.65;;;17.90;99.90;;;;;;5073199;28;20036;-79
2021/09/24 06:42:46;;;;;;;69.78;33.63;;;17.90;99.90;;;;;;5075626;28;20522;-79
2021/09/24 06:45:13;;;;;;;60.85;32.88;;;17.90;99.90;;;;;;5077335;28;20028;-79
2021/09/24 06:47:39;;;;;;;58.72;32.53;;;18.00;99.90;;;;;;5074682;28;20429;-78
2021/09/24 06:50:05;;;;;;;59.80;30.58;;;18.00;99.90;;;;;;5076378;28;20016;-80
2021/09/24 06:52:31;;;;;;;54.00;30.52;;;18.00;99.90;;;;;;5071856;28;20052;-79
2021/09/24 06:54:59;;;;;;;51.53;28.45;;;18.10;99.90;;;;;;5052722;28;20115;-79
2021/09/24 06:57:25;;;;;;;45.17;24.67;;;18.10;99.90;;;;;;5068097;28;20025;-79
2021/09/24 06:59:51;;;;;;;43.65;24.83;;;18.00;99.90;;;;;;5068832;28;20041;-79
2021/09/24 07:02:17;;;;;;;51.25;25.63;;;18.10;99.90;;;;;;5073269;28;20488;-78
2021/09/24 07:04:43;;;;;;;49.10;26.85;;;18.10;99.90;;;;;;5069747;28;20036;-80
2021/09/24 07:07:09;;;;;;;45.58;25.58;;;18.20;99.90;;;;;;5073201;28;20070;-79
2021/09/24 07:09:35;;;;;;;44.85;23.92;;;18.20;99.90;;;;;;5064316;28;20419;-79
2021/09/24 07:12:02;;;;;;;41.15;22.65;;;18.20;99.90;;;;;;5077482;28;20472;-79
2021/09/24 07:14:31;;;;;;;38.55;23.42;;;18.30;99.90;;;;;;5074966;28;20028;-78
2021/09/24 07:16:58;;;;;;;42.88;21.58;;;18.30;99.90;;;;;;5076257;28;20082;-79
2021/09/24 07:19:25;;;;;;;35.58;21.67;;;18.40;99.90;;;;;;5076296;28;20442;-78
2021/09/24 07:21:51;;;;;;;31.85;21.15;;;18.30;99.90;;;;;;5068918;28;20070;-79
2021/09/24 07:24:18;;;;;;;36.88;20.15;;;18.40;99.90;;;;;;5070952;28;20033;-79
2021/09/24 07:26:46;;;;;;;32.05;18.83;;;18.40;99.90;;;;;;5072125;28;20036;-79
2021/09/24 07:29:16;;;;;;;33.47;21.02;;;18.50;99.90;;;;;;5077207;28;20524;-78
2021/09/24 07:31:42;;;;;;;37.33;21.10;;;18.40;99.90;;;;;;5076236;28;20028;-79
2021/09/24 07:34:08;;;;;;;32.03;20.15;;;18.40;99.90;;;;;;5073376;28;20500;-80
2021/09/24 07:36:34;;;;;;;31.45;20.95;;;18.40;99.90;;;;;;5072697;28;20058;-80
2021/09/24 07:39:00;;;;;;;34.53;20.83;;;18.50;99.90;;;;;;5070804;28;20076;-78
2021/09/24 07:41:27;;;;;;;32.28;22.70;;;18.60;99.90;;;;;;5073775;28;20077;-79
2021/09/24 07:43:54;;;;;;;42.72;24.08;;;18.60;99.90;;;;;;5061413;28;20495;-79
2021/09/24 07:46:23;;;;;;;36.90;24.35;;;18.60;99.90;;;;;;5070944;28;20150;-79
2021/09/24 07:48:49;;;;;;;35.50;22.35;;;18.60;99.90;;;;;;5073127;28;20469;-78
2021/09/24 07:51:16;;;;;;;40.05;24.05;;;18.70;99.90;;;;;;5069751;28;20127;-79
2021/09/24 07:53:44;;;;;;;32.85;23.10;;;18.70;99.90;;;;;;5067400;28;20059;-79
2021/09/24 07:56:10;;;;;;;33.45;22.55;;;18.70;99.90;;;;;;5076143;28;20056;-78
2021/09/24 07:58:38;;;;;;;29.63;22.10;;;18.70;99.90;;;;;;5065994;28;20025;-78
2021/09/24 08:01:05;;;;;;;36.33;23.63;;;18.70;99.90;;;;;;5065260;28;20055;-79
2021/09/24 08:03:31;;;;;;;34.35;23.50;;;18.90;99.90;;;;;;5062341;28;20028;-78
2021/09/24 08:05:56;;;;;;;33.97;22.27;;;18.80;99.90;;;;;;5062732;28;20017;-78
2021/09/24 08:08:22;;;;;;;31.60;21.38;;;18.90;99.90;;;;;;5061939;28;20043;-79
2021/09/24 08:10:48;;;;;;;32.15;21.48;;;19.00;99.90;;;;;;5075273;28;20674;-77
2021/09/24 08:13:13;;;;;;;31.75;20.30;;;19.00;99.90;;;;;;5072680;28;20227;-79
2021/09/24 08:15:43;;;;;;;30.30;20.30;;;19.00;99.90;;;;;;5070238;28;20021;-79
2021/09/24 08:18:10;;;;;;;33.75;21.27;;;19.00;99.90;;;;;;5072414;28;20091;-78
2021/09/24 08:20:36;;;;;;;33.95;19.88;;;19.00;99.90;;;;;;5074292;28;20051;-80
2021/09/24 08:23:02;;;;;;;30.23;18.85;;;19.00;99.90;;;;;;5075057;28;20036;-77
2021/09/24 08:25:28;;;;;;;33.13;21.58;;;19.00;99.90;;;;;;5071897;28;20357;-80
2021/09/24 08:27:54;;;;;;;31.90;20.95;;;18.90;99.90;;;;;;5056843;28;20057;-79
2021/09/24 08:30:24;;;;;;;27.08;19.25;;;19.00;99.90;;;;;;5075134;28;20095;-79
2021/09/24 08:32:51;;;;;;;26.92;19.63;;;19.00;99.90;;;;;;5075388;28;20028;-79
2021/09/24 08:35:17;;;;;;;26.65;19.15;;;19.00;99.90;;;;;;5067653;28;20491;-78
2021/09/24 08:37:47;;;;;;;25.27;17.90;;;19.00;99.90;;;;;;5075176;28;20029;-79
2021/09/24 08:40:14;;;;;;;27.27;18.42;;;19.00;99.90;;;;;;5062321;28;20162;-79
2021/09/24 08:42:41;;;;;;;26.63;18.52;;;18.90;99.90;;;;;;5072549;28;20472;-78
2021/09/24 08:45:15;;;;;;;29.05;17.48;;;19.00;99.90;;;;;;5072362;28;20024;-79
2021/09/24 08:47:40;;;;;;;28.70;18.98;;;19.00;99.90;;;;;;5066497;28;20032;-80
2021/09/24 08:50:08;;;;;;;24.02;16.83;;;19.00;99.90;;;;;;5076093;28;20024;-79
2021/09/24 08:52:36;;;;;;;24.58;17.80;;;19.00;99.90;;;;;;5064431;28;20103;-77
2021/09/24 08:55:03;;;;;;;23.52;16.25;;;19.10;99.90;;;;;;5074334;28;20479;-80
2021/09/24 08:57:29;;;;;;;29.85;17.98;;;19.10;99.90;;;;;;5072880;28;20413;-80
2021/09/24 08:59:54;;;;;;;24.27;17.42;;;19.10;99.90;;;;;;5075359;28;20067;-77
2021/09/24 09:02:20;;;;;;;24.77;16.50;;;19.10;99.90;;;;;;5073336;28;20024;-80
2021/09/24 09:04:46;;;;;;;25.05;15.57;;;19.10;99.90;;;;;;5073152;28;20020;-77
2021/09/24 09:07:15;;;;;;;28.90;17.20;;;19.10;99.90;;;;;;5073068;28;20036;-81
2021/09/24 09:09:44;;;;;;;23.63;17.50;;;19.10;99.90;;;;;;5077216;28;20024;-81
2021/09/24 09:12:24;;;;;;;24.92;16.95;;;19.10;99.90;;;;;;5081433;28;20055;-80
2021/09/24 09:15:12;;;;;;;30.65;16.48;;;19.10;99.90;;;;;;5079007;28;20074;-80
2021/09/24 09:17:44;;;;;;;21.17;15.25;;;19.20;99.90;;;;;;5078051;28;20024;-81
2021/09/24 09:20:24;;;;;;;22.33;14.95;;;19.20;99.90;;;;;;5080234;28;20519;-81
2021/09/24 09:23:11;;;;;;;26.15;14.68;;;19.30;99.90;;;;;;5077754;28;20445;-81
2021/09/24 09:25:43;;;;;;;22.60;14.90;;;19.20;99.90;;;;;;5077935;28;20037;-79
2021/09/24 09:28:16;;;;;;;18.00;14.40;;;19.30;99.90;;;;;;5073244;28;20012;-80
2021/09/24 09:30:45;;;;;;;19.77;14.05;;;19.40;99.90;;;;;;5070682;28;20022;-80
2021/09/24 09:33:18;;;;;;;24.38;14.57;;;19.50;99.90;;;;;;5072910;28;20368;-80
2021/09/24 09:36:00;;;;;;;24.08;14.45;;;19.50;99.90;;;;;;5075433;28;20048;-78
2021/09/24 09:38:36;;;;;;;22.55;13.02;;;19.50;99.90;;;;;;5074686;28;20253;-80
2021/09/24 09:41:06;;;;;;;19.33;12.43;;;19.50;99.90;;;;;;5077976;28;20423;-80
2021/09/24 09:43:34;;;;;;;23.33;12.45;;;19.50;99.90;;;;;;5081732;28;20020;-77
2021/09/24 09:46:03;;;;;;;18.42;12.70;;;19.50;99.90;;;;;;5076118;28;20020;-78
2021/09/24 09:48:29;;;;;;;16.50;10.93;;;19.50;99.90;;;;;;5083827;28;20020;-81
2021/09/24 09:50:54;;;;;;;20.85;14.27;;;19.40;99.90;;;;;;5071425;28;20537;-79
2021/09/24 09:53:21;;;;;;;31.50;14.55;;;19.40;99.90;;;;;;5076715;28;20016;-80
2021/09/24 09:55:49;;;;;;;26.98;13.48;;;19.40;99.90;;;;;;5075134;28;20025;-77
2021/09/24 09:58:15;;;;;;;24.13;12.75;;;19.40;99.90;;;;;;5074457;28;20036;-77
2021/09/24 10:00:56;;;;;;;24.52;14.68;;;19.40;99.90;;;;;;5072343;28;20036;-80
2021/09/24 10:03:33;;;;;;;20.92;13.10;;;19.50;99.90;;;;;;5069900;28;20485;-80
2021/09/24 10:05:59;;;;;;;19.77;12.90;;;19.60;99.90;;;;;;5074617;28;20021;-77
2021/09/24 10:08:32;;;;;;;23.77;13.75;;;19.60;99.90;;;;;;5075771;28;20415;-76
2021/09/24 10:11:03;;;;;;;25.70;14.63;;;19.70;99.90;;;;;;5076174;28;20103;-77
2021/09/24 10:13:31;;;;;;;18.42;11.38;;;19.70;99.90;;;;;;5075265;28;20431;-77
2021/09/24 10:15:57;;;;;;;16.30;11.02;;;19.90;99.90;;;;;;5071982;28;20020;-80
2021/09/24 10:18:23;;;;;;;14.18;9.73;;;20.00;99.90;;;;;;5079907;28;20036;-77
2021/09/24 10:20:49;;;;;;;18.17;10.20;;;20.00;99.90;;;;;;5078316;28;20024;-76
2021/09/24 10:23:16;;;;;;;13.07;8.70;;;19.90;99.90;;;;;;5076361;28;20021;-74
2021/09/24 10:25:44;;;;;;;17.05;10.30;;;20.00;99.90;;;;;;5075474;28;20037;-74
2021/09/24 10:28:11;;;;;;;15.77;9.30;;;20.10;99.90;;;;;;5065973;28;20053;-75
2021/09/24 10:30:38;;;;;;;13.23;8.18;;;20.10;99.90;;;;;;5078250;28;20020;-74
2021/09/24 10:33:07;;;;;;;11.77;8.20;;;20.20;99.90;;;;;;5069695;28;20406;-74
2021/09/24 10:35:54;;;;;;;10.27;8.05;;;20.20;99.90;;;;;;5075002;28;20040;-75
2021/09/24 10:38:22;;;;;;;9.70;8.23;;;20.30;99.90;;;;;;5070787;28;20037;-75
2021/09/24 10:41:14;;;;;;;18.58;9.13;;;20.30;99.90;;;;;;5069807;28;20505;-74
2021/09/24 10:43:43;;;;;;;14.68;8.98;;;20.20;99.90;;;;;;5072374;28;20063;-74
2021/09/24 10:46:25;;;;;;;12.63;8.15;;;20.20;99.90;;;;;;5066372;28;20020;-74
2021/09/24 10:49:23;;;;;;;12.27;8.02;;;20.20;99.90;;;;;;5073429;28;20029;-75
2021/09/24 10:51:58;;;;;;;14.48;8.25;;;20.30;99.90;;;;;;5069597;28;20024;-74
2021/09/24 10:54:25;;;;;;;10.55;7.75;;;20.30;99.90;;;;;;5070683;28;20116;-74
2021/09/24 10:57:02;;;;;;;16.67;8.05;;;20.30;99.90;;;;;;5075501;28;20020;-74
2021/09/24 10:59:35;;;;;;;16.20;7.97;;;20.30;99.90;;;;;;5071470;28;20041;-75
2021/09/24 11:02:36;;;;;;;13.15;8.45;;;20.30;99.90;;;;;;5071953;28;20118;-74
2021/09/24 11:05:03;;;;;;;12.82;7.63;;;20.30;99.90;;;;;;5072350;28;20162;-74
2021/09/24 11:07:33;;;;;;;14.02;8.32;;;20.30;99.90;;;;;;5080027;28;20024;-75
2021/09/24 11:09:59;;;;;;;12.07;8.05;;;20.40;99.90;;;;;;5071420;28;20135;-74
2021/09/24 11:12:26;;;;;;;16.05;9.10;;;20.40;99.90;;;;;;5077478;28;20031;-74
2021/09/24 11:15:06;;;;;;;13.23;9.93;;;20.30;99.90;;;;;;5073112;28;20020;-73
2021/09/24 11:17:46;;;;;;;15.70;10.07;;;20.30;99.90;;;;;;5074566;28;20077;-73
2021/09/24 11:20:30;;;;;;;11.93;9.18;;;20.40;99.90;;;;;;5075209;28;20548;-74
2021/09/24 11:22:57;;;;;;;17.90;8.98;;;20.50;99.90;;;;;;5071385;28;20067;-74
2021/09/24 11:25:22;;;;;;;15.32;10.10;;;20.60;99.90;;;;;;5071241;28;20074;-74
2021/09/24 11:27:48;;;;;;;19.27;10.43;;;20.60;99.90;;;;;;5077193;28;20439;-74
2021/09/24 11:30:19;;;;;;;18.50;10.23;;;20.60;99.90;;;;;;5078191;28;20679;-73
2021/09/24 11:32:47;;;;;;;16.77;9.68;;;20.60;99.90;;;;;;5080515;28;20032;-74
2021/09/24 11:35:28;;;;;;;16.85;8.63;;;20.60;99.90;;;;;;5080380;28;20016;-73
2021/09/24 11:38:12;;;;;;;16.58;9.65;;;20.70;99.90;;;;;;5080848;28;20099;-74
2021/09/24 11:40:38;;;;;;;12.20;8.15;;;20.80;99.90;;;;;;5097633;28;20016;-74
2021/09/24 11:43:04;;;;;;;17.90;8.45;;;20.90;99.90;;;;;;5077057;28;20025;-74
2021/09/24 11:45:31;;;;;;;16.60;8.73;;;21.10;99.90;;;;;;5074814;28;20089;-74
2021/09/24 11:48:09;;;;;;;12.10;9.13;;;21.30;99.90;;;;;;5076223;28;20028;-74
2021/09/24 11:50:36;;;;;;;15.88;7.97;;;21.30;99.90;;;;;;5066430;28;20027;-74
2021/09/24 11:53:08;;;;;;;16.25;9.90;;;21.30;99.90;;;;;;5071029;28;20029;-74
2021/09/24 11:55:44;;;;;;;10.30;7.45;;;21.20;99.90;;;;;;5074361;28;20396;-74
2021/09/24 11:58:11;;;;;;;13.15;8.23;;;21.30;99.90;;;;;;5077686;28;20500;-74
2021/09/24 12:00:43;;;;;;;13.25;8.73;;;21.30;99.90;;;;;;5072300;28;20037;-75
2021/09/24 12:03:23;;;;;;;10.07;7.10;;;21.20;99.90;;;;;;5074030;28;20099;-74
2021/09/24 12:06:10;;;;;;;12.65;7.70;;;21.30;99.90;;;;;;5075803;28;20444;-74
2021/09/24 12:08:47;;;;;;;11.10;7.05;;;21.30;99.90;;;;;;5074494;28;20030;-74
2021/09/24 12:11:18;;;;;;;14.27;6.93;;;21.50;99.90;;;;;;5075145;28;20488;-77
2021/09/24 12:13:50;;;;;;;12.85;6.97;;;21.50;99.90;;;;;;5060246;28;20115;-77
2021/09/24 12:16:23;;;;;;;14.02;6.32;;;21.40;99.90;;;;;;5080885;28;20508;-77
2021/09/24 12:18:58;;;;;;;14.80;7.78;;;21.50;99.90;;;;;;5080655;28;20028;-78
2021/09/24 12:21:38;;;;;;;11.15;5.72;;;21.50;99.90;;;;;;5067854;28;20166;-78
2021/09/24 12:24:13;;;;;;;10.25;5.38;;;21.60;99.90;;;;;;5072056;28;20503;-78
2021/09/24 12:26:42;;;;;;;8.30;5.45;;;21.80;99.90;;;;;;5076499;28;20068;-76
2021/09/24 12:29:14;;;;;;;8.68;5.13;;;21.80;99.90;;;;;;5081956;28;20507;-76
2021/09/24 12:31:48;;;;;;;7.63;4.80;;;21.80;99.90;;;;;;5067601;28;20033;-79